createdAt,value
2022-08-07T00:04:39.566Z,16.21
2022-08-07T00:14:44.419Z,15.99
2022-08-07T00:24:49.512Z,15.96
2022-08-07T00:34:54.071Z,15.78
2022-08-07T00:44:59.387Z,15.85
2022-08-07T00:55:04.582Z,15.71
2022-08-07T01:05:19.330Z,15.62
2022-08-07T01:15:35.936Z,15.59
2022-08-07T01:25:55.558Z,15.64
2022-08-07T01:36:06.491Z,15.51
2022-08-07T01:46:13.172Z,15.21
2022-08-07T01:56:24.198Z,15.30
2022-08-07T02:06:35.589Z,15.11
2022-08-07T02:16:40.668Z,15.26
2022-08-07T02:26:48.342Z,14.90
2022-08-07T02:36:53.329Z,14.82
2022-08-07T02:47:00.826Z,14.51
2022-08-07T02:57:06.562Z,14.43
2022-08-07T03:07:13.014Z,14.27
2022-08-07T03:17:25.573Z,14.11
2022-08-07T03:27:42.179Z,14.22
2022-08-07T03:37:59.134Z,14.07
2022-08-07T03:48:05.207Z,14.07
2022-08-07T03:59:04.641Z,13.98
2022-08-07T04:08:41.178Z,13.99
2022-08-07T04:18:59.840Z,14.00
2022-08-07T04:29:11.046Z,13.82
2022-08-07T04:39:15.040Z,13.95
2022-08-07T04:49:37.769Z,13.89
2022-08-07T05:00:11.067Z,14.00
2022-08-07T05:10:24.690Z,14.00
2022-08-07T05:20:36.676Z,14.38
2022-08-07T05:30:43.636Z,14.42
2022-08-07T05:40:51.998Z,14.68
2022-08-07T05:50:57.937Z,14.93
2022-08-07T06:01:05.076Z,15.30
2022-08-07T06:11:12.991Z,15.53
2022-08-07T06:22:16.780Z,15.91
2022-08-07T06:31:49.692Z,16.27
2022-08-07T06:42:04.304Z,16.92
2022-08-07T06:52:12.104Z,17.69
2022-08-07T07:02:48.123Z,18.14
2022-08-07T07:12:53.776Z,18.78
2022-08-07T07:24:10.799Z,19.26
2022-08-07T07:33:25.004Z,19.59
2022-08-07T07:43:48.060Z,20.08
2022-08-07T07:53:59.715Z,19.94
2022-08-07T08:04:11.996Z,20.68
2022-08-07T08:14:21.420Z,21.45
2022-08-07T08:24:57.096Z,21.38
2022-08-07T08:35:18.276Z,21.97
2022-08-07T08:45:59.013Z,22.03
2022-08-07T08:56:11.212Z,22.29
2022-08-07T09:06:26.462Z,22.75
2022-08-07T09:16:58.004Z,22.81
2022-08-07T09:27:12.049Z,23.05
2022-08-07T09:37:53.507Z,23.29
2022-08-07T09:48:14.463Z,23.25
2022-08-07T09:59:46.130Z,23.50
2022-08-07T10:10:21.420Z,23.84
2022-08-07T10:20:40.975Z,24.39
2022-08-07T10:31:05.865Z,24.00
2022-08-07T10:41:47.392Z,24.55
2022-08-07T10:52:13.030Z,24.27
2022-08-07T11:02:34.136Z,24.71
2022-08-07T11:13:02.029Z,24.32
2022-08-07T11:23:20.629Z,24.92
2022-08-07T11:33:58.626Z,25.39
2022-08-07T11:44:18.677Z,25.00
2022-08-07T11:55:03.435Z,25.46
2022-08-07T12:05:28.333Z,25.36
2022-08-07T12:16:05.914Z,25.21
2022-08-07T12:26:23.101Z,25.50
2022-08-07T12:36:33.911Z,26.02
2022-08-07T12:46:54.626Z,26.05
2022-08-07T12:57:09.739Z,26.10
2022-08-07T13:08:14.673Z,26.69
2022-08-07T13:18:28.688Z,26.59
2022-08-07T13:28:39.861Z,26.17
2022-08-07T13:38:57.797Z,26.67
2022-08-07T13:49:08.927Z,26.70
2022-08-07T13:59:33.210Z,26.57
2022-08-07T14:10:02.693Z,26.52
2022-08-07T14:20:42.873Z,26.61
2022-08-07T14:30:40.867Z,26.74
2022-08-07T14:40:49.447Z,26.81
2022-08-07T14:50:57.762Z,26.73
2022-08-07T15:11:52.820Z,26.65
2022-08-07T15:22:05.717Z,26.81
2022-08-07T15:32:12.517Z,27.10
2022-08-07T15:42:51.742Z,27.15
2022-08-07T15:53:02.450Z,27.64
2022-08-07T16:03:20.822Z,27.85
2022-08-07T16:14:07.020Z,28.55
2022-08-07T16:24:34.901Z,29.33
2022-08-07T16:34:48.833Z,29.20
2022-08-07T16:46:40.761Z,29.46
2022-08-07T16:55:53.765Z,29.74
2022-08-07T17:06:30.705Z,30.11
2022-08-07T17:16:46.094Z,30.76
2022-08-07T17:27:06.587Z,31.68
2022-08-07T17:38:06.745Z,30.97
2022-08-07T17:48:02.715Z,32.39
2022-08-07T17:58:30.133Z,31.63
2022-08-07T18:09:01.881Z,30.04
2022-08-07T18:21:12.641Z,26.58
2022-08-07T18:30:07.771Z,25.65
2022-08-07T18:40:43.895Z,25.22
2022-08-07T18:51:15.075Z,24.70
2022-08-07T19:02:32.871Z,24.15
2022-08-07T19:12:17.877Z,23.84
2022-08-07T19:22:31.166Z,23.42
2022-08-07T19:32:45.379Z,23.22
2022-08-07T19:42:51.630Z,22.93
2022-08-07T19:52:58.897Z,22.53
2022-08-07T20:03:33.891Z,22.34
2022-08-07T20:13:41.755Z,22.01
2022-08-07T20:23:54.130Z,21.95
2022-08-07T20:34:01.765Z,21.58
2022-08-07T20:44:12.333Z,21.32
2022-08-07T20:54:29.824Z,21.08
2022-08-07T21:04:37.024Z,20.87
2022-08-07T21:14:48.516Z,20.77
2022-08-07T21:25:12.185Z,20.78
2022-08-07T21:36:03.835Z,20.65
2022-08-07T21:46:09.033Z,20.31
2022-08-07T21:56:39.673Z,20.08
2022-08-07T22:06:59.745Z,19.97
2022-08-07T22:17:07.599Z,19.65
2022-08-07T22:27:20.784Z,19.46
2022-08-07T22:38:04.151Z,19.44
2022-08-07T22:48:31.785Z,19.21
2022-08-07T22:59:04.905Z,18.97
2022-08-07T23:10:04.111Z,18.63
2022-08-07T23:20:40.739Z,18.83
2022-08-07T23:31:05.608Z,18.75
2022-08-07T23:41:33.281Z,18.50
2022-08-07T23:53:01.974Z,18.40
